Time;durP1;ratioP1;P1;durP2;ratioP2;P2;SDS_P1;SDS_P2;PMS_P1;PMS_P2;Temp;Humidity;BMP_temperature;BMP_pressure;BME280_temperature;BME280_humidity;BME280_pressure;Samples;Min_cycle;Max_cycle;Signal;HPM_P1;HPM_P2
2024/04/05 00:00:49;;;;;;;9.95;1.98;;;;;;;;;;6165883;28;20045;-85
2024/04/05 00:03:51;;;;;;;7.60;2.00;;;;;;;;;;6184802;28;20042;-86
2024/04/05 00:06:51;;;;;;;3.15;2.30;;;;;;;;;;6151130;28;20596;-85
2024/04/05 00:09:52;;;;;;;3.55;1.95;;;;;;;;;;6155544;28;20069;-85
2024/04/05 00:12:53;;;;;;;5.15;2.03;;;;;;;;;;6153387;28;20030;-85
2024/04/05 00:15:54;;;;;;;6.22;3.00;;;;;;;;;;6163849;28;20050;-84
2024/04/05 00:18:55;;;;;;;5.22;2.53;;;;;;;;;;6175551;28;20133;-85
2024/04/05 00:21:56;;;;;;;6.13;2.75;;;;;;;;;;6137661;28;20073;-84
2024/04/05 00:24:57;;;;;;;5.45;2.20;;;;;;;;;;6200055;28;20050;-85
2024/04/05 00:27:58;;;;;;;5.07;1.92;;;;;;;;;;6194620;28;20053;-85
2024/04/05 00:30:59;;;;;;;4.53;2.00;;;;;;;;;;6152129;28;20046;-85
2024/04/05 00:33:59;;;;;;;4.30;2.17;;;;;;;;;;6166017;28;20093;-85
2024/04/05 00:37:00;;;;;;;5.65;1.88;;;;;;;;;;6194373;28;20022;-85
2024/04/05 00:40:00;;;;;;;9.25;2.10;;;;;;;;;;6175505;28;20496;-85
2024/04/05 00:43:04;;;;;;;2.55;1.77;;;;;;;;;;6174189;28;20546;-86
2024/04/05 00:46:05;;;;;;;3.40;2.25;;;;;;;;;;6179134;28;20038;-85
2024/04/05 00:49:08;;;;;;;4.80;2.35;;;;;;;;;;6172397;28;20031;-85
2024/04/05 00:52:10;;;;;;;4.80;2.40;;;;;;;;;;6189481;28;20047;-85
2024/04/05 00:55:11;;;;;;;3.90;2.03;;;;;;;;;;6168215;28;20457;-85
2024/04/05 00:58:12;;;;;;;4.60;2.13;;;;;;;;;;6152543;28;20047;-85
2024/04/05 01:01:12;;;;;;;5.68;2.00;;;;;;;;;;6151321;28;20500;-85
2024/04/05 01:04:13;;;;;;;5.80;2.10;;;;;;;;;;6161716;28;20357;-86
2024/04/05 01:07:14;;;;;;;6.15;1.85;;;;;;;;;;6166433;28;20058;-86
2024/04/05 01:10:15;;;;;;;4.93;1.80;;;;;;;;;;6187123;28;20077;-85
2024/04/05 01:13:15;;;;;;;5.85;1.60;;;;;;;;;;6172156;28;20477;-84
2024/04/05 01:16:16;;;;;;;4.30;1.80;;;;;;;;;;6182333;28;20129;-84
2024/04/05 01:19:19;;;;;;;4.50;1.92;;;;;;;;;;6184775;28;20411;-85
2024/04/05 01:22:27;;;;;;;4.35;2.35;;;;;;;;;;6175592;28;20046;-86
2024/04/05 01:25:27;;;;;;;5.55;2.30;;;;;;;;;;6170441;28;20496;-84
2024/04/05 01:28:28;;;;;;;5.22;2.40;;;;;;;;;;6169035;28;20056;-85
2024/04/05 01:31:29;;;;;;;5.10;2.72;;;;;;;;;;6159464;28;20491;-85
2024/04/05 01:34:29;;;;;;;6.70;2.20;;;;;;;;;;6164397;28;20141;-85
2024/04/05 01:37:30;;;;;;;5.97;2.42;;;;;;;;;;6161614;28;20046;-85
2024/04/05 01:40:31;;;;;;;9.65;2.47;;;;;;;;;;6169513;28;20057;-85
2024/04/05 01:43:31;;;;;;;5.90;2.40;;;;;;;;;;6168319;28;20091;-85
2024/04/05 01:46:32;;;;;;;6.93;2.47;;;;;;;;;;6184831;28;20050;-85
2024/04/05 01:49:33;;;;;;;4.53;2.10;;;;;;;;;;6170106;28;20046;-85
2024/04/05 01:52:33;;;;;;;7.10;2.45;;;;;;;;;;6170837;28;20401;-85
2024/04/05 01:55:34;;;;;;;6.63;2.20;;;;;;;;;;6175833;28;20080;-85
2024/04/05 01:58:35;;;;;;;7.18;3.17;;;;;;;;;;6153645;28;20085;-85
2024/04/05 02:01:35;;;;;;;5.63;2.53;;;;;;;;;;6174275;28;20042;-85
2024/04/05 02:04:36;;;;;;;7.88;2.10;;;;;;;;;;6163566;28;20054;-85
2024/04/05 02:07:37;;;;;;;4.22;2.15;;;;;;;;;;6191672;28;20042;-85
2024/04/05 02:10:37;;;;;;;9.32;2.47;;;;;;;;;;6172868;28;20285;-86
2024/04/05 02:13:38;;;;;;;4.97;2.20;;;;;;;;;;6170019;28;20047;-85
2024/04/05 02:16:39;;;;;;;13.32;2.42;;;;;;;;;;6176411;28;20050;-85
2024/04/05 02:19:39;;;;;;;4.22;2.10;;;;;;;;;;6173342;28;20054;-85
2024/04/05 02:22:40;;;;;;;5.88;1.90;;;;;;;;;;6172902;28;20050;-85
2024/04/05 02:25:41;;;;;;;4.40;2.03;;;;;;;;;;6165123;28;20715;-85
2024/04/05 02:28:41;;;;;;;6.05;2.25;;;;;;;;;;6179536;28;20424;-85
2024/04/05 02:31:42;;;;;;;7.93;2.28;;;;;;;;;;6173009;28;20072;-85
2024/04/05 02:34:43;;;;;;;6.05;1.92;;;;;;;;;;6175056;28;20050;-86
2024/04/05 02:37:43;;;;;;;12.23;2.40;;;;;;;;;;6158967;28;20488;-86
2024/04/05 02:40:52;;;;;;;6.03;2.40;;;;;;;;;;6179408;28;20053;-85
2024/04/05 02:43:52;;;;;;;5.05;1.92;;;;;;;;;;6175074;28;20074;-86
2024/04/05 02:46:53;;;;;;;5.80;2.22;;;;;;;;;;6193681;28;20125;-85
2024/04/05 02:49:54;;;;;;;7.63;2.30;;;;;;;;;;6190456;28;20057;-85
2024/04/05 02:52:54;;;;;;;6.07;2.30;;;;;;;;;;6158150;28;20404;-85
2024/04/05 02:55:55;;;;;;;5.07;2.25;;;;;;;;;;6193381;28;20046;-85
2024/04/05 02:58:56;;;;;;;7.72;2.83;;;;;;;;;;6174557;28;20459;-85
2024/04/05 03:01:57;;;;;;;4.82;2.30;;;;;;;;;;6169259;28;20563;-86
2024/04/05 03:04:58;;;;;;;5.50;3.15;;;;;;;;;;6156365;28;20129;-85
2024/04/05 03:07:58;;;;;;;8.95;2.58;;;;;;;;;;6186815;28;20045;-85
2024/04/05 03:10:59;;;;;;;8.95;2.50;;;;;;;;;;6164319;28;20052;-85
2024/04/05 03:14:00;;;;;;;6.72;2.90;;;;;;;;;;6165907;28;20042;-85
2024/04/05 03:17:01;;;;;;;2.90;2.20;;;;;;;;;;6147285;28;20137;-85
2024/04/05 03:20:01;;;;;;;8.45;2.67;;;;;;;;;;6151077;28;20050;-85
2024/04/05 03:23:02;;;;;;;7.97;2.30;;;;;;;;;;6169559;28;20518;-85
2024/04/05 03:26:03;;;;;;;9.60;2.58;;;;;;;;;;6169762;28;20042;-85
2024/04/05 03:29:04;;;;;;;6.07;2.78;;;;;;;;;;6176973;28;20049;-85
2024/04/05 03:32:04;;;;;;;9.25;3.08;;;;;;;;;;6175452;28;20042;-85
2024/04/05 03:35:06;;;;;;;10.85;2.60;;;;;;;;;;6156757;28;20042;-85
2024/04/05 03:38:06;;;;;;;6.72;2.25;;;;;;;;;;6184117;28;20050;-85
2024/04/05 03:41:07;;;;;;;4.85;2.22;;;;;;;;;;6169881;28;20515;-85
2024/04/05 03:44:08;;;;;;;7.85;3.05;;;;;;;;;;6189478;28;20054;-85
2024/04/05 03:47:09;;;;;;;18.98;6.22;;;;;;;;;;6196101;28;20098;-85
2024/04/05 03:50:09;;;;;;;16.50;4.25;;;;;;;;;;6174843;28;20046;-85
2024/04/05 03:53:10;;;;;;;9.20;2.90;;;;;;;;;;6185321;28;20057;-84
2024/04/05 03:56:11;;;;;;;13.02;2.97;;;;;;;;;;6164515;28;20054;-85
2024/04/05 03:59:11;;;;;;;12.90;3.85;;;;;;;;;;6152259;28;20047;-85
2024/04/05 04:02:12;;;;;;;12.48;3.05;;;;;;;;;;6150605;28;20050;-85
2024/04/05 04:05:13;;;;;;;10.07;2.72;;;;;;;;;;6177549;28;20054;-85
2024/04/05 04:08:15;;;;;;;12.30;3.47;;;;;;;;;;6180291;28;20042;-85
2024/04/05 04:11:16;;;;;;;10.77;3.05;;;;;;;;;;6182904;28;20046;-85
2024/04/05 04:14:16;;;;;;;11.75;2.90;;;;;;;;;;6167141;28;20414;-85
2024/04/05 04:17:17;;;;;;;8.80;3.03;;;;;;;;;;6186401;28;20048;-86
2024/04/05 04:20:19;;;;;;;6.22;2.47;;;;;;;;;;6168988;28;20045;-84
2024/04/05 04:23:20;;;;;;;7.55;2.72;;;;;;;;;;6148518;28;20096;-85
2024/04/05 04:26:21;;;;;;;9.48;2.80;;;;;;;;;;6149422;28;20069;-86
2024/04/05 04:29:22;;;;;;;7.95;2.35;;;;;;;;;;6169655;28;20042;-85
2024/04/05 04:32:23;;;;;;;8.10;3.50;;;;;;;;;;6164215;28;20439;-86
2024/04/05 04:35:24;;;;;;;7.68;3.03;;;;;;;;;;6146859;28;20045;-86
2024/04/05 04:38:24;;;;;;;37.50;15.13;;;;;;;;;;6178481;28;20503;-86
2024/04/05 04:41:26;;;;;;;37.13;16.33;;;;;;;;;;6169534;28;21086;-86
2024/04/05 04:44:27;;;;;;;33.53;15.00;;;;;;;;;;6146548;28;20110;-87
2024/04/05 04:47:29;;;;;;;20.98;9.13;;;;;;;;;;6161389;28;20046;-86
2024/04/05 04:50:30;;;;;;;21.60;8.15;;;;;;;;;;6151735;28;20042;-86
2024/04/05 04:53:30;;;;;;;21.65;11.65;;;;;;;;;;6159228;28;20053;-87
2024/04/05 04:56:31;;;;;;;24.67;12.98;;;;;;;;;;6178430;28;20407;-86
2024/04/05 04:59:32;;;;;;;15.20;6.85;;;;;;;;;;6155095;28;20232;-86
2024/04/05 05:02:32;;;;;;;8.27;5.10;;;;;;;;;;6183264;28;20057;-88
2024/04/05 05:05:33;;;;;;;14.25;5.93;;;;;;;;;;6141734;28;20053;-88
2024/04/05 05:08:34;;;;;;;17.08;8.30;;;;;;;;;;6179028;28;20050;-87
2024/04/05 05:11:35;;;;;;;17.38;9.98;;;;;;;;;;6160586;28;20081;-87
2024/04/05 05:14:36;;;;;;;20.85;8.80;;;;;;;;;;6154700;28;20144;-88
2024/04/05 05:17:37;;;;;;;21.70;11.05;;;;;;;;;;6188437;28;20042;-87
2024/04/05 05:20:47;;;;;;;20.58;7.93;;;;;;;;;;6184041;28;20034;-89
2024/04/05 05:23:48;;;;;;;17.00;5.57;;;;;;;;;;6202574;28;20399;-89
2024/04/05 05:26:48;;;;;;;14.77;5.40;;;;;;;;;;6174925;28;20120;-87
2024/04/05 05:29:49;;;;;;;18.13;6.50;;;;;;;;;;6172996;28;20237;-88
2024/04/05 05:32:51;;;;;;;16.52;7.28;;;;;;;;;;6163515;28;20066;-88
2024/04/05 05:35:52;;;;;;;19.75;9.57;;;;;;;;;;6185352;28;20321;-87
2024/04/05 05:38:52;;;;;;;29.50;14.32;;;;;;;;;;6166488;28;20058;-87
2024/04/05 05:41:53;;;;;;;23.00;10.25;;;;;;;;;;6150397;28;20084;-87
2024/04/05 05:44:54;;;;;;;18.88;10.07;;;;;;;;;;6185127;28;20512;-88
2024/04/05 05:47:56;;;;;;;25.33;11.77;;;;;;;;;;6182089;28;20054;-87
2024/04/05 05:50:56;;;;;;;37.22;15.00;;;;;;;;;;6166478;28;20034;-87
2024/04/05 05:53:57;;;;;;;26.85;13.40;;;;;;;;;;6173855;28;20496;-87
2024/04/05 05:56:58;;;;;;;23.77;12.95;;;;;;;;;;6183725;28;20035;-87
2024/04/05 06:00:00;;;;;;;21.75;11.48;;;;;;;;;;6165856;28;20451;-87
2024/04/05 06:03:02;;;;;;;19.53;8.37;;;;;;;;;;6170694;28;20048;-87
2024/04/05 06:06:06;;;;;;;18.30;12.05;;;;;;;;;;6158837;28;20453;-86
2024/04/05 06:09:07;;;;;;;11.68;6.82;;;;;;;;;;6152805;28;20050;-87
2024/04/05 06:12:08;;;;;;;9.57;4.50;;;;;;;;;;6179566;28;20038;-88
2024/04/05 06:15:09;;;;;;;12.00;6.55;;;;;;;;;;6151380;28;20034;-88
2024/04/05 06:18:10;;;;;;;20.92;12.32;;;;;;;;;;6167608;28;20216;-87
2024/04/05 06:21:11;;;;;;;11.55;6.72;;;;;;;;;;6149486;28;20046;-89
2024/04/05 06:24:12;;;;;;;18.52;11.45;;;;;;;;;;6181211;28;20185;-88
2024/04/05 06:27:13;;;;;;;44.55;21.35;;;;;;;;;;6151507;28;20038;-88
2024/04/05 06:30:13;;;;;;;15.98;9.65;;;;;;;;;;6149303;28;20077;-87
2024/04/05 06:33:15;;;;;;;15.02;6.28;;;;;;;;;;6167982;28;20512;-88
2024/04/05 06:36:16;;;;;;;12.48;5.80;;;;;;;;;;6152656;28;20042;-88
2024/04/05 06:39:17;;;;;;;14.25;6.82;;;;;;;;;;6176794;28;20069;-89
2024/04/05 06:42:18;;;;;;;10.45;4.85;;;;;;;;;;6151117;28;20042;-88
2024/04/05 06:45:18;;;;;;;16.08;5.15;;;;;;;;;;6154243;28;20053;-88
2024/04/05 06:48:20;;;;;;;10.88;4.47;;;;;;;;;;6156143;28;20133;-88
2024/04/05 06:51:20;;;;;;;13.82;4.15;;;;;;;;;;6138004;28;20062;-88
2024/04/05 06:54:21;;;;;;;14.38;5.55;;;;;;;;;;6178650;28;20053;-90
2024/04/05 06:57:23;;;;;;;9.27;4.68;;;;;;;;;;6213521;28;20038;-91
2024/04/05 07:00:25;;;;;;;15.00;7.35;;;;;;;;;;6167573;28;20093;-88
2024/04/05 07:03:27;;;;;;;17.60;9.30;;;;;;;;;;6183548;28;20074;-88
2024/04/05 07:06:27;;;;;;;18.35;12.10;;;;;;;;;;6176287;28;20050;-88
2024/04/05 07:09:32;;;;;;;11.25;4.35;;;;;;;;;;6148368;28;20074;-89
2024/04/05 07:12:32;;;;;;;11.98;4.40;;;;;;;;;;6151506;28;20124;-89
2024/04/05 07:15:36;;;;;;;11.25;5.45;;;;;;;;;;6191926;28;20046;-89
2024/04/05 07:18:37;;;;;;;6.45;3.85;;;;;;;;;;6156503;28;20084;-89
2024/04/05 07:21:39;;;;;;;10.23;4.65;;;;;;;;;;6162116;28;20042;-88
2024/04/05 07:24:40;;;;;;;11.70;5.40;;;;;;;;;;6169885;28;20240;-90
2024/04/05 07:27:41;;;;;;;12.43;5.55;;;;;;;;;;6176193;28;20033;-89
2024/04/05 07:30:42;;;;;;;10.85;4.20;;;;;;;;;;6179108;28;20236;-89
2024/04/05 07:33:43;;;;;;;7.28;4.03;;;;;;;;;;6193936;28;20046;-90
2024/04/05 07:36:44;;;;;;;10.10;4.22;;;;;;;;;;6204383;28;20110;-91
2024/04/05 07:39:55;;;;;;;6.85;3.28;;;;;;;;;;6160477;28;20046;-88
2024/04/05 07:42:56;;;;;;;11.35;4.18;;;;;;;;;;6191679;28;20451;-87
2024/04/05 07:45:57;;;;;;;7.85;2.47;;;;;;;;;;6171326;28;20397;-89
2024/04/05 07:48:58;;;;;;;5.88;4.47;;;;;;;;;;6170613;28;20043;-89
2024/04/05 07:51:59;;;;;;;8.00;2.33;;;;;;;;;;6156054;28;20050;-88
2024/04/05 07:55:01;;;;;;;7.35;3.15;;;;;;;;;;6157084;28;20043;-88
2024/04/05 07:58:02;;;;;;;9.48;2.70;;;;;;;;;;6146309;28;20057;-88
2024/04/05 08:01:03;;;;;;;5.55;2.25;;;;;;;;;;6168717;28;20046;-88
2024/04/05 08:04:04;;;;;;;6.78;2.60;;;;;;;;;;6167191;28;20046;-87
2024/04/05 08:07:05;;;;;;;5.95;2.67;;;;;;;;;;6178989;28;20046;-88
2024/04/05 08:10:09;;;;;;;8.27;2.70;;;;;;;;;;6145615;28;20050;-88
2024/04/05 08:13:10;;;;;;;5.32;2.50;;;;;;;;;;6166952;28;20237;-89
2024/04/05 08:16:10;;;;;;;6.95;2.80;;;;;;;;;;6171148;28;20038;-88
2024/04/05 08:19:11;;;;;;;6.57;2.63;;;;;;;;;;6183403;28;20062;-88
2024/04/05 08:22:12;;;;;;;5.38;2.50;;;;;;;;;;6143389;28;20050;-88
2024/04/05 08:25:13;;;;;;;7.68;3.38;;;;;;;;;;6145148;28;20038;-88
2024/04/05 08:28:14;;;;;;;16.35;5.53;;;;;;;;;;6177157;28;20076;-91
2024/04/05 08:31:15;;;;;;;7.60;2.83;;;;;;;;;;6192050;28;20138;-88
2024/04/05 08:34:15;;;;;;;5.28;3.03;;;;;;;;;;6181613;28;20451;-88
2024/04/05 08:37:16;;;;;;;10.05;3.40;;;;;;;;;;6163847;28;20049;-87
2024/04/05 08:40:18;;;;;;;6.25;2.60;;;;;;;;;;6175004;28;20069;-89
2024/04/05 08:43:20;;;;;;;8.02;3.15;;;;;;;;;;6144200;28;20045;-88
2024/04/05 08:46:24;;;;;;;6.75;2.40;;;;;;;;;;6175093;28;20039;-88
2024/04/05 08:49:26;;;;;;;8.15;2.72;;;;;;;;;;6174270;28;20054;-88
2024/04/05 08:52:28;;;;;;;4.28;2.13;;;;;;;;;;6184441;28;20108;-88
2024/04/05 08:55:29;;;;;;;6.95;2.25;;;;;;;;;;6171717;28;20043;-88
2024/04/05 08:58:30;;;;;;;5.85;2.95;;;;;;;;;;6160575;28;20058;-89
2024/04/05 09:01:32;;;;;;;5.05;2.35;;;;;;;;;;6171387;28;20050;-88
2024/04/05 09:04:33;;;;;;;7.18;2.60;;;;;;;;;;6178044;28;20085;-89
2024/04/05 09:07:35;;;;;;;6.40;2.38;;;;;;;;;;6161347;28;20050;-88
2024/04/05 09:10:36;;;;;;;6.22;2.28;;;;;;;;;;6172078;28;20050;-88
2024/04/05 09:13:36;;;;;;;3.35;1.80;;;;;;;;;;6175146;28;20459;-88
2024/04/05 09:16:38;;;;;;;4.28;1.90;;;;;;;;;;6183690;28;20412;-88
2024/04/05 09:19:39;;;;;;;5.85;1.80;;;;;;;;;;6168666;28;20053;-88
2024/04/05 09:22:43;;;;;;;5.75;2.45;;;;;;;;;;6177999;28;20054;-88
2024/04/05 09:25:44;;;;;;;15.15;5.15;;;;;;;;;;6159268;28;20057;-88
2024/04/05 09:29:03;;;;;;;9.23;3.63;;;;;;;;;;6179778;28;20050;-89
2024/04/05 09:32:04;;;;;;;4.05;1.70;;;;;;;;;;6166243;28;20802;-88
2024/04/05 09:35:08;;;;;;;4.15;1.40;;;;;;;;;;6162546;28;20073;-88
2024/04/05 09:38:09;;;;;;;4.05;2.05;;;;;;;;;;6167057;28;20360;-88
2024/04/05 09:41:13;;;;;;;2.78;1.50;;;;;;;;;;6175412;28;20047;-88
2024/04/05 09:44:16;;;;;;;4.45;1.50;;;;;;;;;;6153745;28;20053;-88
2024/04/05 09:47:20;;;;;;;4.45;2.08;;;;;;;;;;6183053;28;20042;-88
2024/04/05 09:50:22;;;;;;;3.65;1.52;;;;;;;;;;6160922;28;20557;-91
2024/04/05 09:53:23;;;;;;;3.35;2.00;;;;;;;;;;6144893;28;20046;-88
2024/04/05 09:56:25;;;;;;;4.70;1.65;;;;;;;;;;6167031;28;20129;-88
2024/04/05 09:59:29;;;;;;;4.30;1.58;;;;;;;;;;6196008;28;20030;-89
2024/04/05 10:02:30;;;;;;;3.20;1.58;;;;;;;;;;6182519;28;20064;-89
2024/04/05 10:05:32;;;;;;;3.72;1.40;;;;;;;;;;6183019;28;20052;-90
2024/04/05 10:08:34;;;;;;;3.25;1.48;;;;;;;;;;6184900;28;20566;-90
2024/04/05 10:11:35;;;;;;;2.65;0.98;;;;;;;;;;6158979;28;20046;-88
2024/04/05 10:14:36;;;;;;;2.95;1.38;;;;;;;;;;6167138;28;20051;-89
2024/04/05 10:17:39;;;;;;;3.03;1.23;;;;;;;;;;6165121;28;20044;-89
2024/04/05 10:20:40;;;;;;;2.38;1.20;;;;;;;;;;6145576;28;20479;-88
2024/04/05 10:23:45;;;;;;;2.25;0.80;;;;;;;;;;6141045;28;20034;-88
2024/04/05 10:26:52;;;;;;;4.03;1.30;;;;;;;;;;6145984;28;20133;-88
2024/04/05 10:30:03;;;;;;;4.55;1.10;;;;;;;;;;6174554;28;20050;-87
2024/04/05 10:33:04;;;;;;;4.20;1.10;;;;;;;;;;6160761;28;20042;-87
2024/04/05 10:36:07;;;;;;;1.58;1.10;;;;;;;;;;6162960;28;20070;-89
2024/04/05 10:39:17;;;;;;;2.55;1.00;;;;;;;;;;6179012;28;20513;-89
2024/04/05 10:42:26;;;;;;;2.95;1.27;;;;;;;;;;6163450;28;20133;-89
2024/04/05 10:45:28;;;;;;;5.35;1.50;;;;;;;;;;6184172;28;20034;-89
2024/04/05 10:48:30;;;;;;;3.08;1.00;;;;;;;;;;6172640;28;20073;-89
2024/04/05 10:51:32;;;;;;;2.63;0.75;;;;;;;;;;6174087;28;20521;-89
2024/04/05 10:54:33;;;;;;;4.18;1.00;;;;;;;;;;6148892;28;20167;-88
2024/04/05 10:57:35;;;;;;;2.75;0.90;;;;;;;;;;6164575;28;20061;-88
2024/04/05 11:00:37;;;;;;;2.53;1.15;;;;;;;;;;6159121;28;20051;-88
2024/04/05 11:03:38;;;;;;;1.80;0.90;;;;;;;;;;6166064;28;20054;-88
2024/04/05 11:06:40;;;;;;;1.80;1.02;;;;;;;;;;6160900;28;20042;-88
2024/04/05 11:09:42;;;;;;;2.10;1.10;;;;;;;;;;6145433;28;20057;-90
2024/04/05 11:12:46;;;;;;;3.83;1.10;;;;;;;;;;6163895;28;20069;-89
2024/04/05 11:15:47;;;;;;;4.30;1.33;;;;;;;;;;6178020;28;20188;-89
2024/04/05 11:18:49;;;;;;;2.30;1.25;;;;;;;;;;6152340;28;20049;-89
2024/04/05 11:21:50;;;;;;;2.15;0.90;;;;;;;;;;6168062;28;20068;-89
2024/04/05 11:24:50;;;;;;;3.63;1.15;;;;;;;;;;6158497;28;20487;-89
2024/04/05 11:27:51;;;;;;;3.95;1.10;;;;;;;;;;6158434;28;20046;-89
2024/04/05 11:30:54;;;;;;;3.65;1.10;;;;;;;;;;6180201;28;20069;-92
2024/04/05 11:33:55;;;;;;;2.72;1.10;;;;;;;;;;6196441;28;20046;-89
2024/04/05 11:36:56;;;;;;;2.80;1.00;;;;;;;;;;6175920;28;20483;-88
2024/04/05 11:39:58;;;;;;;5.50;1.17;;;;;;;;;;6153882;28;20060;-88
2024/04/05 11:43:01;;;;;;;3.30;1.15;;;;;;;;;;6158162;28;20125;-89
2024/04/05 11:46:02;;;;;;;3.05;1.00;;;;;;;;;;6163780;28;20042;-89
2024/04/05 11:49:03;;;;;;;1.88;1.10;;;;;;;;;;6176344;28;20052;-89
2024/04/05 11:52:04;;;;;;;1.90;1.10;;;;;;;;;;6167285;28;20053;-89
2024/04/05 11:55:06;;;;;;;5.60;1.38;;;;;;;;;;6146345;28;20039;-89
2024/04/05 11:58:07;;;;;;;3.97;1.10;;;;;;;;;;6158060;28;20129;-89
2024/04/05 12:01:08;;;;;;;4.28;1.50;;;;;;;;;;6162730;28;20049;-89
2024/04/05 12:04:09;;;;;;;3.22;1.45;;;;;;;;;;6163805;28;20073;-89
2024/04/05 12:07:12;;;;;;;4.95;1.48;;;;;;;;;;6166097;28;20082;-90
2024/04/05 12:10:13;;;;;;;;;;;;;;;;;;6161071;28;20055;-89
2024/04/05 12:13:13;;;;;;;2.78;1.27;;;;;;;;;;6157050;28;19922;-89
2024/04/05 12:16:14;;;;;;;4.55;1.48;;;;;;;;;;6157553;28;20150;-89
2024/04/05 12:19:15;;;;;;;3.92;1.15;;;;;;;;;;6169719;28;20089;-89
2024/04/05 12:22:16;;;;;;;3.05;1.30;;;;;;;;;;6150522;28;20050;-89
2024/04/05 12:25:17;;;;;;;5.05;1.45;;;;;;;;;;6170929;28;20056;-89
2024/04/05 12:28:17;;;;;;;3.95;1.40;;;;;;;;;;6167630;28;20096;-89
2024/04/05 12:31:18;;;;;;;3.30;1.20;;;;;;;;;;6175098;28;20583;-89
2024/04/05 12:34:19;;;;;;;2.95;1.33;;;;;;;;;;6168407;28;20172;-89
2024/04/05 12:37:22;;;;;;;3.75;1.48;;;;;;;;;;6171440;28;20057;-89
2024/04/05 12:40:39;;;;;;;3.53;1.27;;;;;;;;;;6156571;28;20042;-89
2024/04/05 12:43:40;;;;;;;2.08;1.00;;;;;;;;;;6168888;28;20446;-89
2024/04/05 12:46:40;;;;;;;2.95;1.27;;;;;;;;;;6169005;28;20046;-88
2024/04/05 12:49:44;;;;;;;2.38;1.20;;;;;;;;;;6169406;28;20047;-91
2024/04/05 12:52:45;;;;;;;3.38;1.50;;;;;;;;;;6160493;28;20054;-89
2024/04/05 12:55:57;;;;;;;2.67;1.10;;;;;;;;;;6188427;28;20038;-88
2024/04/05 12:58:57;;;;;;;1.80;1.35;;;;;;;;;;6173764;28;20046;-88
2024/04/05 13:01:58;;;;;;;3.60;1.30;;;;;;;;;;6215085;28;20061;-89
2024/04/05 13:04:59;;;;;;;2.17;1.40;;;;;;;;;;6163316;28;20050;-86
2024/04/05 13:08:00;;;;;;;3.22;1.30;;;;;;;;;;6207012;28;20054;-88
2024/04/05 13:11:01;;;;;;;3.20;1.10;;;;;;;;;;6169287;28;20053;-87
2024/04/05 13:14:02;;;;;;;4.30;1.42;;;;;;;;;;6169956;28;20081;-87
2024/04/05 13:17:03;;;;;;;3.58;1.50;;;;;;;;;;6155135;28;20046;-88
2024/04/05 13:20:04;;;;;;;2.88;1.27;;;;;;;;;;6171974;28;20538;-87
2024/04/05 13:23:05;;;;;;;2.40;1.17;;;;;;;;;;6152990;28;20093;-88
2024/04/05 13:26:13;;;;;;;2.80;1.20;;;;;;;;;;6173546;28;20039;-88
2024/04/05 13:29:13;;;;;;;1.98;1.30;;;;;;;;;;6167073;28;20042;-88
2024/04/05 13:32:17;;;;;;;2.85;1.33;;;;;;;;;;6170015;28;20050;-90
2024/04/05 13:35:20;;;;;;;6.60;1.38;;;;;;;;;;6155879;28;20046;-90
2024/04/05 13:38:22;;;;;;;1.45;1.10;;;;;;;;;;6171923;28;20092;-91
2024/04/05 13:41:24;;;;;;;3.05;1.30;;;;;;;;;;6165246;28;20133;-90
2024/04/05 13:44:25;;;;;;;2.30;1.40;;;;;;;;;;6176099;28;20099;-91
2024/04/05 13:47:26;;;;;;;3.97;1.25;;;;;;;;;;6186731;28;20045;-88
2024/04/05 13:50:27;;;;;;;3.17;1.52;;;;;;;;;;6161067;28;20057;-89
2024/04/05 13:53:28;;;;;;;3.13;1.10;;;;;;;;;;6169584;28;20114;-90
2024/04/05 13:56:29;;;;;;;3.50;1.00;;;;;;;;;;6156943;28;20053;-90
2024/04/05 13:59:32;;;;;;;2.92;1.27;;;;;;;;;;6155375;28;20060;-89
2024/04/05 14:02:36;;;;;;;2.67;1.20;;;;;;;;;;6160172;28;20052;-89
2024/04/05 14:05:36;;;;;;;2.78;1.50;;;;;;;;;;6164728;28;20042;-89
2024/04/05 14:08:37;;;;;;;1.73;1.13;;;;;;;;;;6163035;28;20058;-90
2024/04/05 14:11:38;;;;;;;3.10;1.20;;;;;;;;;;6153821;28;20034;-89
2024/04/05 14:14:39;;;;;;;2.03;1.00;;;;;;;;;;6146569;28;20125;-89
2024/04/05 14:17:40;;;;;;;2.47;1.30;;;;;;;;;;6165615;28;20154;-88
2024/04/05 14:20:41;;;;;;;2.75;1.00;;;;;;;;;;6164756;28;20042;-89
2024/04/05 14:23:42;;;;;;;2.75;0.90;;;;;;;;;;6147124;28;20131;-89
2024/04/05 14:26:43;;;;;;;1.33;0.85;;;;;;;;;;6144065;28;20222;-89
2024/04/05 14:29:46;;;;;;;1.83;0.73;;;;;;;;;;6152147;28;20043;-89
2024/04/05 14:32:48;;;;;;;;;;;;;;;;;;6159566;28;20042;-88
2024/04/05 14:36:06;;;;;;;1.35;0.70;;;;;;;;;;6178438;28;19909;-89
2024/04/05 14:39:08;;;;;;;4.90;0.93;;;;;;;;;;6197984;28;20037;-90
2024/04/05 14:42:10;;;;;;;2.30;0.98;;;;;;;;;;6170727;28;20053;-90
2024/04/05 14:45:11;;;;;;;2.95;0.98;;;;;;;;;;6138634;28;20069;-89
2024/04/05 14:48:12;;;;;;;1.70;0.90;;;;;;;;;;6156188;28;20050;-89
2024/04/05 14:51:13;;;;;;;5.03;1.10;;;;;;;;;;6145829;28;20365;-88
2024/04/05 14:54:14;;;;;;;1.73;0.90;;;;;;;;;;6155745;28;20057;-89
2024/04/05 14:57:15;;;;;;;2.45;0.90;;;;;;;;;;6163390;28;20153;-90
2024/04/05 15:00:19;;;;;;;5.45;1.00;;;;;;;;;;6093502;28;20062;-90
2024/04/05 15:03:26;;;;;;;2.28;0.95;;;;;;;;;;6142276;28;20060;-91
2024/04/05 15:06:29;;;;;;;2.00;0.90;;;;;;;;;;6167941;28;20124;-88
2024/04/05 15:09:30;;;;;;;2.13;0.90;;;;;;;;;;6176921;28;20107;-91
2024/04/05 15:12:35;;;;;;;2.15;0.95;;;;;;;;;;6123800;28;20229;-91
2024/04/05 15:15:41;;;;;;;1.50;0.75;;;;;;;;;;6159797;28;20370;-90
2024/04/05 15:18:43;;;;;;;2.00;0.80;;;;;;;;;;6155314;28;20407;-90
2024/04/05 15:21:46;;;;;;;1.73;0.73;;;;;;;;;;6168883;28;20050;-90
2024/04/05 15:24:47;;;;;;;1.77;0.70;;;;;;;;;;6153378;28;20042;-91
2024/04/05 15:27:50;;;;;;;1.77;0.80;;;;;;;;;;6160687;28;20134;-89
2024/04/05 15:30:56;;;;;;;3.95;0.80;;;;;;;;;;6132189;28;20136;-91
2024/04/05 15:33:57;;;;;;;2.33;0.70;;;;;;;;;;6146060;28;20037;-90
2024/04/05 15:36:58;;;;;;;1.83;1.02;;;;;;;;;;6111761;28;20046;-90
2024/04/05 15:39:59;;;;;;;1.52;0.90;;;;;;;;;;6168068;28;20048;-89
2024/04/05 15:43:04;;;;;;;3.13;0.88;;;;;;;;;;6123358;28;20046;-90
2024/04/05 15:46:10;;;;;;;1.35;0.60;;;;;;;;;;6129753;28;20050;-90
2024/04/05 15:49:14;;;;;;;1.25;0.60;;;;;;;;;;6172944;28;20046;-89
2024/04/05 15:52:31;;;;;;;4.65;1.15;;;;;;;;;;6141671;28;20412;-90
2024/04/05 15:55:33;;;;;;;2.38;0.68;;;;;;;;;;6148769;28;20530;-90
2024/04/05 15:58:35;;;;;;;1.83;0.77;;;;;;;;;;6154942;28;20507;-90
2024/04/05 16:01:36;;;;;;;0.83;0.70;;;;;;;;;;6147189;28;20054;-90
2024/04/05 16:04:43;;;;;;;1.33;0.70;;;;;;;;;;6158713;28;20053;-90
2024/04/05 16:07:44;;;;;;;4.38;1.05;;;;;;;;;;6152013;28;20050;-90
2024/04/05 16:10:52;;;;;;;1.70;0.60;;;;;;;;;;6176215;28;20171;-89
2024/04/05 16:13:52;;;;;;;1.52;0.70;;;;;;;;;;6185862;28;20070;-90
2024/04/05 16:16:53;;;;;;;5.15;0.80;;;;;;;;;;6134070;28;20546;-89
2024/04/05 16:19:56;;;;;;;2.40;0.80;;;;;;;;;;6148298;28;20073;-90
2024/04/05 16:23:00;;;;;;;0.82;0.63;;;;;;;;;;6137593;28;20043;-90
2024/04/05 16:26:05;;;;;;;3.00;0.63;;;;;;;;;;6163471;28;20127;-90
2024/04/05 16:29:06;;;;;;;1.13;0.70;;;;;;;;;;6180729;28;20238;-89
2024/04/05 16:32:08;;;;;;;2.63;0.93;;;;;;;;;;6159773;28;20053;-90
2024/04/05 16:35:25;;;;;;;;;;;;;;;;;;;;;
2024/04/05 16:38:35;;;;;;;3.95;1.00;;;;;;;;;;6114521;28;20043;-91
2024/04/05 16:41:37;;;;;;;1.55;1.00;;;;;;;;;;6140583;28;20505;-91
2024/04/05 16:44:48;;;;;;;3.08;0.95;;;;;;;;;;6140042;28;20049;-92
2024/04/05 16:47:50;;;;;;;1.50;1.27;;;;;;;;;;6108745;28;20080;-90
2024/04/05 16:50:54;;;;;;;2.03;0.95;;;;;;;;;;6142700;28;20157;-91
2024/04/05 16:53:55;;;;;;;2.67;0.70;;;;;;;;;;6123444;28;20053;-91
2024/04/05 16:57:02;;;;;;;3.22;1.00;;;;;;;;;;6166857;28;20073;-91
2024/04/05 17:00:07;;;;;;;5.70;0.90;;;;;;;;;;6140321;28;20068;-90
2024/04/05 17:03:12;;;;;;;1.73;0.82;;;;;;;;;;6146681;28;20057;-90
2024/04/05 17:06:19;;;;;;;2.95;1.20;;;;;;;;;;6163202;28;20050;-91
2024/04/05 17:09:20;;;;;;;2.40;0.90;;;;;;;;;;6156549;28;20121;-89
2024/04/05 17:12:21;;;;;;;1.50;0.75;;;;;;;;;;6183340;28;20042;-89
2024/04/05 17:15:22;;;;;;;3.13;0.77;;;;;;;;;;6177736;28;20808;-89
2024/04/05 17:18:27;;;;;;;2.17;1.10;;;;;;;;;;6162395;28;20466;-89
2024/04/05 17:21:28;;;;;;;2.42;0.93;;;;;;;;;;6150968;28;20046;-89
2024/04/05 17:24:31;;;;;;;0.90;0.70;;;;;;;;;;6169972;28;20563;-90
2024/04/05 17:27:32;;;;;;;2.33;0.80;;;;;;;;;;6170224;28;20522;-89
2024/04/05 17:30:34;;;;;;;2.60;0.73;;;;;;;;;;6149315;28;20085;-88
2024/04/05 17:33:39;;;;;;;1.55;0.73;;;;;;;;;;6148640;28;20057;-90
2024/04/05 17:36:42;;;;;;;1.75;0.90;;;;;;;;;;6145459;28;20125;-91
2024/04/05 17:39:45;;;;;;;1.67;0.77;;;;;;;;;;6146671;28;20145;-92
2024/04/05 17:42:50;;;;;;;0.85;0.63;;;;;;;;;;6177736;28;20031;-91
2024/04/05 17:45:51;;;;;;;1.55;0.85;;;;;;;;;;6161437;28;20038;-91
2024/04/05 17:48:52;;;;;;;3.80;0.90;;;;;;;;;;6165241;28;20455;-90
2024/04/05 17:51:54;;;;;;;2.58;0.98;;;;;;;;;;6146626;28;20054;-90
2024/04/05 17:54:55;;;;;;;1.10;0.80;;;;;;;;;;6170193;28;20134;-90
2024/04/05 17:57:59;;;;;;;5.43;2.90;;;;;;;;;;6144227;28;20207;-91
2024/04/05 18:01:00;;;;;;;1.52;0.90;;;;;;;;;;6162806;28;20042;-91
2024/04/05 18:04:02;;;;;;;3.13;1.95;;;;;;;;;;6146191;28;20056;-91
2024/04/05 18:07:03;;;;;;;1.30;0.85;;;;;;;;;;6149433;28;20066;-91